sensor_id;sensor_type;location;lat;lon;timestamp;pressure;altitude;pressure_sealevel;temperature;humidity
3132;BME280;62090;52.330;9.104;2023-03-04T00:00:52;101720.63;;;5.99;81.32
3132;BME280;62090;52.330;9.104;2023-03-04T00:03:22;101774.88;;;6.32;81.58
3132;BME280;62090;52.330;9.104;2023-03-04T00:05:52;101729.31;;;6.03;81.13
3132;BME280;62090;52.330;9.104;2023-03-04T00:08:21;101723.94;;;5.98;81.35
3132;BME280;62090;52.330;9.104;2023-03-04T00:10:51;101724.16;;;6.01;81.35
3132;BME280;62090;52.330;9.104;2023-03-04T00:13:21;101709.28;;;5.92;81.03
3132;BME280;62090;52.330;9.104;2023-03-04T00:15:54;101774.78;;;6.30;81.15
3132;BME280;62090;52.330;9.104;2023-03-04T00:18:24;101704.94;;;5.90;81.54
3132;BME280;62090;52.330;9.104;2023-03-04T00:20:53;101772.75;;;6.25;81.51
3132;BME280;62090;52.330;9.104;2023-03-04T00:23:23;101772.19;;;6.29;81.61
3132;BME280;62090;52.330;9.104;2023-03-04T00:25:53;101789.03;;;6.43;81.71
3132;BME280;62090;52.330;9.104;2023-03-04T00:28:22;101712.72;;;6.08;81.35
3132;BME280;62090;52.330;9.104;2023-03-04T00:30:55;101727.97;;;6.09;81.49
3132;BME280;62090;52.330;9.104;2023-03-04T00:33:25;101794.97;;;6.44;81.13
3132;BME280;62090;52.330;9.104;2023-03-04T00:35:55;101780.28;;;6.38;80.99
3132;BME280;62090;52.330;9.104;2023-03-04T00:38:24;101790.31;;;6.51;80.90
3132;BME280;62090;52.330;9.104;2023-03-04T00:40:54;101760.19;;;6.26;81.17
3132;BME280;62090;52.330;9.104;2023-03-04T00:43:24;101777.31;;;6.45;81.19
3132;BME280;62090;52.330;9.104;2023-03-04T00:45:56;101780.19;;;6.51;80.75
3132;BME280;62090;52.330;9.104;2023-03-04T00:48:26;101788.59;;;6.50;80.94
3132;BME280;62090;52.330;9.104;2023-03-04T00:50:56;101775.59;;;6.44;81.45
3132;BME280;62090;52.330;9.104;2023-03-04T00:53:25;101762.72;;;6.41;81.64
3132;BME280;62090;52.330;9.104;2023-03-04T00:55:55;101763.72;;;6.43;81.02
3132;BME280;62090;52.330;9.104;2023-03-04T00:58:25;101777.31;;;6.45;81.56
3132;BME280;62090;52.330;9.104;2023-03-04T01:00:57;101782.72;;;6.51;81.63
3132;BME280;62090;52.330;9.104;2023-03-04T01:03:27;101751.31;;;6.33;81.50
3132;BME280;62090;52.330;9.104;2023-03-04T01:05:58;101774.34;;;6.52;81.88
3132;BME280;62090;52.330;9.104;2023-03-04T01:08:28;101769.81;;;6.61;81.41
3132;BME280;62090;52.330;9.104;2023-03-04T01:10:57;101765.25;;;6.56;81.21
3132;BME280;62090;52.330;9.104;2023-03-04T01:13:27;101732.59;;;6.46;81.00
3132;BME280;62090;52.330;9.104;2023-03-04T01:16:00;101751.75;;;6.55;80.87
3132;BME280;62090;52.330;9.104;2023-03-04T01:18:31;101750.44;;;6.47;80.89
3132;BME280;62090;52.330;9.104;2023-03-04T01:21:01;101767.19;;;6.60;80.72
3132;BME280;62090;52.330;9.104;2023-03-04T01:23:31;101737.50;;;6.43;81.03
3132;BME280;62090;52.330;9.104;2023-03-04T01:26:00;101743.09;;;6.52;81.51
3132;BME280;62090;52.330;9.104;2023-03-04T01:28:30;101744.06;;;6.54;81.23
3132;BME280;62090;52.330;9.104;2023-03-04T01:31:04;101752.16;;;6.63;81.49
3132;BME280;62090;52.330;9.104;2023-03-04T01:33:34;101675.44;;;6.20;81.21
3132;BME280;62090;52.330;9.104;2023-03-04T01:36:04;101745.09;;;6.57;81.78
3132;BME280;62090;52.330;9.104;2023-03-04T01:38:34;101739.88;;;6.54;81.93
3132;BME280;62090;52.330;9.104;2023-03-04T01:41:04;101730.53;;;6.53;82.16
3132;BME280;62090;52.330;9.104;2023-03-04T01:43:35;101702.75;;;6.40;81.94
3132;BME280;62090;52.330;9.104;2023-03-04T01:46:08;101628.63;;;5.97;82.14
3132;BME280;62090;52.330;9.104;2023-03-04T01:48:38;101673.38;;;6.27;82.55
3132;BME280;62090;52.330;9.104;2023-03-04T01:51:11;101711.94;;;6.53;82.32
3132;BME280;62090;52.330;9.104;2023-03-04T01:53:43;101708.88;;;6.58;82.26
3132;BME280;62090;52.330;9.104;2023-03-04T01:56:17;101690.00;;;6.53;82.26
3132;BME280;62090;52.330;9.104;2023-03-04T01:59:10;101707.31;;;6.60;81.80
3132;BME280;62090;52.330;9.104;2023-03-04T02:01:44;101700.66;;;6.62;82.43
3132;BME280;62090;52.330;9.104;2023-03-04T02:04:16;101659.22;;;6.31;82.27
3132;BME280;62090;52.330;9.104;2023-03-04T02:06:47;101700.56;;;6.61;82.01
3132;BME280;62090;52.330;9.104;2023-03-04T02:09:18;101679.72;;;6.50;82.26
3132;BME280;62090;52.330;9.104;2023-03-04T02:11:49;101693.03;;;6.62;82.08
3132;BME280;62090;52.330;9.104;2023-03-04T02:14:20;101693.22;;;6.65;81.93
3132;BME280;62090;52.330;9.104;2023-03-04T02:16:52;101626.16;;;6.28;82.12
3132;BME280;62090;52.330;9.104;2023-03-04T02:19:40;101686.50;;;6.66;81.54
3132;BME280;62090;52.330;9.104;2023-03-04T02:22:13;101668.00;;;6.52;82.19
3132;BME280;62090;52.330;9.104;2023-03-04T02:24:46;101667.66;;;6.61;82.04
3132;BME280;62090;52.330;9.104;2023-03-04T02:27:20;101616.19;;;6.31;82.36
3132;BME280;62090;52.330;9.104;2023-03-04T02:29:51;101670.88;;;6.58;81.96
3132;BME280;62090;52.330;9.104;2023-03-04T02:32:20;101685.09;;;6.71;82.13
3132;BME280;62090;52.330;9.104;2023-03-04T02:34:50;101677.22;;;6.66;82.16
3132;BME280;62090;52.330;9.104;2023-03-04T02:37:20;101598.06;;;6.23;82.25
3132;BME280;62090;52.330;9.104;2023-03-04T02:39:52;101679.94;;;6.69;82.27
3132;BME280;62090;52.330;9.104;2023-03-04T02:42:25;101672.97;;;6.65;82.35
3132;BME280;62090;52.330;9.104;2023-03-04T02:44:59;101679.56;;;6.78;82.19
3132;BME280;62090;52.330;9.104;2023-03-04T02:47:29;101620.03;;;6.39;82.30
3132;BME280;62090;52.330;9.104;2023-03-04T02:49:59;101670.78;;;6.71;82.21
3132;BME280;62090;52.330;9.104;2023-03-04T02:52:29;101664.50;;;6.65;82.50
3132;BME280;62090;52.330;9.104;2023-03-04T02:54:59;101665.53;;;6.68;82.40
3132;BME280;62090;52.330;9.104;2023-03-04T02:57:32;101669.72;;;6.68;82.52
3132;BME280;62090;52.330;9.104;2023-03-04T03:00:02;101669.03;;;6.70;82.35
3132;BME280;62090;52.330;9.104;2023-03-04T03:02:31;101655.94;;;6.63;82.55
3132;BME280;62090;52.330;9.104;2023-03-04T03:05:01;101665.38;;;6.65;82.79
3132;BME280;62090;52.330;9.104;2023-03-04T03:07:31;101668.78;;;6.66;82.52
3132;BME280;62090;52.330;9.104;2023-03-04T03:10:01;101659.09;;;6.59;82.77
3132;BME280;62090;52.330;9.104;2023-03-04T03:12:33;101669.19;;;6.73;83.13
3132;BME280;62090;52.330;9.104;2023-03-04T03:15:04;101632.56;;;6.52;82.54
3132;BME280;62090;52.330;9.104;2023-03-04T03:17:34;101663.78;;;6.67;83.28
3132;BME280;62090;52.330;9.104;2023-03-04T03:20:05;101627.69;;;6.41;82.79
3132;BME280;62090;52.330;9.104;2023-03-04T03:22:36;101627.00;;;6.43;83.03
3132;BME280;62090;52.330;9.104;2023-03-04T03:25:07;101616.09;;;6.44;83.25
3132;BME280;62090;52.330;9.104;2023-03-04T03:27:40;101646.25;;;6.56;83.18
3132;BME280;62090;52.330;9.104;2023-03-04T03:30:13;101644.69;;;6.58;83.36
3132;BME280;62090;52.330;9.104;2023-03-04T03:32:43;101655.94;;;6.63;83.71
3132;BME280;62090;52.330;9.104;2023-03-04T03:35:13;101599.59;;;6.36;84.14
3132;BME280;62090;52.330;9.104;2023-03-04T03:37:43;101651.91;;;6.66;83.36
3132;BME280;62090;52.330;9.104;2023-03-04T03:40:14;101608.16;;;6.38;83.49
3132;BME280;62090;52.330;9.104;2023-03-04T03:42:47;101654.28;;;6.63;84.02
3132;BME280;62090;52.330;9.104;2023-03-04T03:45:16;101636.94;;;6.55;84.06
3132;BME280;62090;52.330;9.104;2023-03-04T03:47:46;101643.38;;;6.64;84.01
3132;BME280;62090;52.330;9.104;2023-03-04T03:50:16;101578.06;;;6.28;83.60
3132;BME280;62090;52.330;9.104;2023-03-04T03:52:46;101642.59;;;6.65;84.01
3132;BME280;62090;52.330;9.104;2023-03-04T03:55:15;101635.44;;;6.58;83.99
3132;BME280;62090;52.330;9.104;2023-03-04T03:57:48;101617.00;;;6.61;83.88
3132;BME280;62090;52.330;9.104;2023-03-04T04:00:18;101626.41;;;6.63;83.79
3132;BME280;62090;52.330;9.104;2023-03-04T04:02:48;101638.44;;;6.67;83.70
3132;BME280;62090;52.330;9.104;2023-03-04T04:05:18;101631.09;;;6.72;83.24
3132;BME280;62090;52.330;9.104;2023-03-04T04:07:48;101615.63;;;6.51;83.20
3132;BME280;62090;52.330;9.104;2023-03-04T04:10:19;101609.38;;;6.45;83.73
3132;BME280;62090;52.330;9.104;2023-03-04T04:12:52;101632.28;;;6.62;83.88
3132;BME280;62090;52.330;9.104;2023-03-04T04:15:21;101612.63;;;6.58;83.98
3132;BME280;62090;52.330;9.104;2023-03-04T04:17:51;101630.16;;;6.70;84.06
3132;BME280;62090;52.330;9.104;2023-03-04T04:20:21;101630.69;;;6.64;84.04
3132;BME280;62090;52.330;9.104;2023-03-04T04:22:52;101640.94;;;6.66;84.32
3132;BME280;62090;52.330;9.104;2023-03-04T04:25:21;101633.22;;;6.64;84.32
3132;BME280;62090;52.330;9.104;2023-03-04T04:27:54;101622.31;;;6.65;84.75
3132;BME280;62090;52.330;9.104;2023-03-04T04:30:24;101622.91;;;6.61;84.49
3132;BME280;62090;52.330;9.104;2023-03-04T04:32:54;101639.72;;;6.59;85.04
3132;BME280;62090;52.330;9.104;2023-03-04T04:35:27;101636.06;;;6.54;84.62
3132;BME280;62090;52.330;9.104;2023-03-04T04:37:57;101576.47;;;6.30;85.06
3132;BME280;62090;52.330;9.104;2023-03-04T04:40:26;101632.44;;;6.65;84.61
3132;BME280;62090;52.330;9.104;2023-03-04T04:42:58;101624.91;;;6.67;85.03
3132;BME280;62090;52.330;9.104;2023-03-04T04:45:28;101625.19;;;6.71;84.66
3132;BME280;62090;52.330;9.104;2023-03-04T04:47:58;101631.56;;;6.65;84.87
3132;BME280;62090;52.330;9.104;2023-03-04T04:50:27;101622.22;;;6.64;84.63
3132;BME280;62090;52.330;9.104;2023-03-04T04:52:58;101622.69;;;6.57;85.01
3132;BME280;62090;52.330;9.104;2023-03-04T04:55:28;101606.91;;;6.46;85.26
3132;BME280;62090;52.330;9.104;2023-03-04T04:58:00;101607.31;;;6.54;85.02
3132;BME280;62090;52.330;9.104;2023-03-04T05:00:30;101614.28;;;6.58;85.79
3132;BME280;62090;52.330;9.104;2023-03-04T05:03:00;101612.16;;;6.49;85.92
3132;BME280;62090;52.330;9.104;2023-03-04T05:05:29;101574.66;;;6.27;85.82
3132;BME280;62090;52.330;9.104;2023-03-04T05:07:59;101612.44;;;6.39;86.93
3132;BME280;62090;52.330;9.104;2023-03-04T05:10:29;101613.56;;;6.44;86.50
3132;BME280;62090;52.330;9.104;2023-03-04T05:13:01;101617.22;;;6.49;87.08
3132;BME280;62090;52.330;9.104;2023-03-04T05:15:31;101618.69;;;6.46;86.97
3132;BME280;62090;52.330;9.104;2023-03-04T05:18:03;101612.75;;;6.45;87.41
3132;BME280;62090;52.330;9.104;2023-03-04T05:20:33;101592.00;;;6.36;87.65
3132;BME280;62090;52.330;9.104;2023-03-04T05:23:03;101610.78;;;6.40;87.70
3132;BME280;62090;52.330;9.104;2023-03-04T05:25:32;101602.63;;;6.45;88.26
3132;BME280;62090;52.330;9.104;2023-03-04T05:28:05;101606.31;;;6.50;88.46
3132;BME280;62090;52.330;9.104;2023-03-04T05:30:38;101608.56;;;6.46;88.62
3132;BME280;62090;52.330;9.104;2023-03-04T05:33:09;101603.91;;;6.53;88.44
3132;BME280;62090;52.330;9.104;2023-03-04T05:35:40;101610.41;;;6.48;88.31
3132;BME280;62090;52.330;9.104;2023-03-04T05:38:11;101606.56;;;6.40;89.18
3132;BME280;62090;52.330;9.104;2023-03-04T05:40:41;101571.00;;;6.22;89.04
3132;BME280;62090;52.330;9.104;2023-03-04T05:43:15;101608.31;;;6.41;89.89
3132;BME280;62090;52.330;9.104;2023-03-04T05:45:44;101609.91;;;6.39;89.95
3132;BME280;62090;52.330;9.104;2023-03-04T05:48:14;101610.19;;;6.29;90.54
3132;BME280;62090;52.330;9.104;2023-03-04T05:50:44;101597.00;;;6.20;92.10
3132;BME280;62090;52.330;9.104;2023-03-04T05:53:14;101608.88;;;6.21;92.03
3132;BME280;62090;52.330;9.104;2023-03-04T05:55:45;101610.72;;;6.23;91.92
3132;BME280;62090;52.330;9.104;2023-03-04T05:58:19;101596.50;;;6.11;92.37
3132;BME280;62090;52.330;9.104;2023-03-04T06:00:48;101611.66;;;6.25;91.58
3132;BME280;62090;52.330;9.104;2023-03-04T06:03:21;101622.31;;;6.20;92.61
3132;BME280;62090;52.330;9.104;2023-03-04T06:05:51;101608.38;;;6.12;92.93
3132;BME280;62090;52.330;9.104;2023-03-04T06:08:21;101568.06;;;6.00;92.92
3132;BME280;62090;52.330;9.104;2023-03-04T06:10:52;101590.41;;;6.07;93.16
3132;BME280;62090;52.330;9.104;2023-03-04T06:13:25;101596.84;;;6.17;93.41
3132;BME280;62090;52.330;9.104;2023-03-04T06:15:56;101586.53;;;6.14;93.43
3132;BME280;62090;52.330;9.104;2023-03-04T06:18:27;101599.38;;;6.17;93.66
3132;BME280;62090;52.330;9.104;2023-03-04T06:20:58;101601.72;;;6.14;94.01
3132;BME280;62090;52.330;9.104;2023-03-04T06:23:28;101610.28;;;6.16;94.45
3132;BME280;62090;52.330;9.104;2023-03-04T06:25:59;101598.59;;;6.18;94.80
3132;BME280;62090;52.330;9.104;2023-03-04T06:28:31;101577.16;;;5.97;94.84
3132;BME280;62090;52.330;9.104;2023-03-04T06:31:01;101594.41;;;6.04;96.19
3132;BME280;62090;52.330;9.104;2023-03-04T06:33:31;101609.78;;;6.07;96.50
3132;BME280;62090;52.330;9.104;2023-03-04T06:36:01;101597.56;;;6.00;97.28
3132;BME280;62090;52.330;9.104;2023-03-04T06:38:30;101555.06;;;5.79;97.82
3132;BME280;62090;52.330;9.104;2023-03-04T06:41:05;101618.16;;;6.06;98.87
3132;BME280;62090;52.330;9.104;2023-03-04T06:43:38;101608.81;;;6.05;99.95
3132;BME280;62090;52.330;9.104;2023-03-04T06:46:08;101615.53;;;5.89;100.00
3132;BME280;62090;52.330;9.104;2023-03-04T06:48:38;101606.53;;;5.94;100.00
3132;BME280;62090;52.330;9.104;2023-03-04T06:51:09;101613.44;;;5.97;100.00
3132;BME280;62090;52.330;9.104;2023-03-04T06:53:39;101614.38;;;5.99;100.00
3132;BME280;62090;52.330;9.104;2023-03-04T06:56:11;101621.19;;;6.00;100.00
3132;BME280;62090;52.330;9.104;2023-03-04T06:58:45;101547.84;;;5.71;100.00
3132;BME280;62090;52.330;9.104;2023-03-04T07:01:16;101607.41;;;5.95;100.00
3132;BME280;62090;52.330;9.104;2023-03-04T07:03:47;101589.84;;;5.83;100.00
3132;BME280;62090;52.330;9.104;2023-03-04T07:06:19;101575.19;;;5.63;100.00
3132;BME280;62090;52.330;9.104;2023-03-04T07:08:49;101536.56;;;5.51;100.00
3132;BME280;62090;52.330;9.104;2023-03-04T07:11:20;101557.66;;;5.66;100.00
3132;BME280;62090;52.330;9.104;2023-03-04T07:13:53;101576.94;;;5.79;100.00
3132;BME280;62090;52.330;9.104;2023-03-04T07:16:23;101555.59;;;5.59;100.00
3132;BME280;62090;52.330;9.104;2023-03-04T07:18:53;101595.78;;;5.84;100.00
3132;BME280;62090;52.330;9.104;2023-03-04T07:21:22;101595.97;;;5.87;100.00
3132;BME280;62090;52.330;9.104;2023-03-04T07:23:52;101610.81;;;5.96;100.00
3132;BME280;62090;52.330;9.104;2023-03-04T07:26:22;101606.19;;;5.88;100.00
3132;BME280;62090;52.330;9.104;2023-03-04T07:28:55;101602.88;;;5.89;100.00
3132;BME280;62090;52.330;9.104;2023-03-04T07:31:27;101613.78;;;6.03;100.00
3132;BME280;62090;52.330;9.104;2023-03-04T07:33:59;101612.72;;;6.00;100.00
3132;BME280;62090;52.330;9.104;2023-03-04T07:36:30;101584.50;;;5.92;100.00
3132;BME280;62090;52.330;9.104;2023-03-04T07:39:00;101611.94;;;6.01;100.00
3132;BME280;62090;52.330;9.104;2023-03-04T07:41:30;101620.56;;;6.19;100.00
3132;BME280;62090;52.330;9.104;2023-03-04T07:44:05;101627.22;;;6.17;100.00
3132;BME280;62090;52.330;9.104;2023-03-04T07:46:38;101616.72;;;6.25;100.00
3132;BME280;62090;52.330;9.104;2023-03-04T07:49:10;101615.78;;;6.23;100.00
3132;BME280;62090;52.330;9.104;2023-03-04T07:51:40;101613.84;;;6.34;100.00
3132;BME280;62090;52.330;9.104;2023-03-04T07:54:10;101612.50;;;6.41;100.00
3132;BME280;62090;52.330;9.104;2023-03-04T07:56:39;101578.59;;;6.22;100.00
3132;BME280;62090;52.330;9.104;2023-03-04T07:59:11;101596.38;;;6.39;100.00
3132;BME280;62090;52.330;9.104;2023-03-04T08:01:41;101612.16;;;6.49;100.00
3132;BME280;62090;52.330;9.104;2023-03-04T08:04:11;101604.31;;;6.45;100.00
3132;BME280;62090;52.330;9.104;2023-03-04T08:06:41;101524.97;;;5.99;100.00
3132;BME280;62090;52.330;9.104;2023-03-04T08:09:10;101609.09;;;6.40;100.00
3132;BME280;62090;52.330;9.104;2023-03-04T08:11:41;101584.44;;;6.21;100.00
3132;BME280;62090;52.330;9.104;2023-03-04T08:14:14;101621.31;;;6.47;100.00
3132;BME280;62090;52.330;9.104;2023-03-04T08:16:43;101610.22;;;6.45;100.00
3132;BME280;62090;52.330;9.104;2023-03-04T08:19:13;101624.81;;;6.49;100.00
3132;BME280;62090;52.330;9.104;2023-03-04T08:21:43;101604.31;;;6.45;100.00
3132;BME280;62090;52.330;9.104;2023-03-04T08:24:13;101569.66;;;6.44;100.00
3132;BME280;62090;52.330;9.104;2023-03-04T08:26:45;101609.56;;;6.64;100.00
3132;BME280;62090;52.330;9.104;2023-03-04T08:29:20;101607.03;;;6.64;100.00
3132;BME280;62090;52.330;9.104;2023-03-04T08:31:51;101609.81;;;6.68;100.00
3132;BME280;62090;52.330;9.104;2023-03-04T08:34:24;101607.19;;;6.67;100.00
3132;BME280;62090;52.330;9.104;2023-03-04T08:36:54;101603.88;;;6.68;100.00
3132;BME280;62090;52.330;9.104;2023-03-04T08:39:24;101563.63;;;6.42;100.00
3132;BME280;62090;52.330;9.104;2023-03-04T08:41:53;101612.03;;;6.78;100.00
3132;BME280;62090;52.330;9.104;2023-03-04T08:44:26;101574.53;;;6.71;100.00
3132;BME280;62090;52.330;9.104;2023-03-04T08:46:55;101603.59;;;6.94;100.00
3132;BME280;62090;52.330;9.104;2023-03-04T08:49:25;101441.81;;;6.05;100.00
3132;BME280;62090;52.330;9.104;2023-03-04T08:51:55;101603.06;;;7.16;100.00
3132;BME280;62090;52.330;9.104;2023-03-04T08:54:24;101613.19;;;7.32;100.00
3132;BME280;62090;52.330;9.104;2023-03-04T08:56:54;101614.06;;;7.33;100.00
3132;BME280;62090;52.330;9.104;2023-03-04T08:59:26;101610.56;;;7.31;100.00
3132;BME280;62090;52.330;9.104;2023-03-04T09:01:56;101606.88;;;7.24;100.00
3132;BME280;62090;52.330;9.104;2023-03-04T09:04:26;101397.06;;;6.04;100.00
3132;BME280;62090;52.330;9.104;2023-03-04T09:06:55;101574.63;;;7.21;100.00
3132;BME280;62090;52.330;9.104;2023-03-04T09:09:25;101594.78;;;7.36;100.00
3132;BME280;62090;52.330;9.104;2023-03-04T09:11:55;101582.34;;;7.41;100.00
3132;BME280;62090;52.330;9.104;2023-03-04T09:14:27;101613.94;;;7.63;100.00
3132;BME280;62090;52.330;9.104;2023-03-04T09:16:58;101606.75;;;7.55;100.00
3132;BME280;62090;52.330;9.104;2023-03-04T09:19:28;101619.31;;;7.70;100.00
3132;BME280;62090;52.330;9.104;2023-03-04T09:21:58;101621.38;;;7.77;99.77
3132;BME280;62090;52.330;9.104;2023-03-04T09:24:28;101595.06;;;7.75;98.60
3132;BME280;62090;52.330;9.104;2023-03-04T09:26:57;101608.97;;;7.83;95.64
3132;BME280;62090;52.330;9.104;2023-03-04T09:29:30;101605.28;;;7.76;96.36
3132;BME280;62090;52.330;9.104;2023-03-04T09:31:59;101628.81;;;7.74;97.04
3132;BME280;62090;52.330;9.104;2023-03-04T09:34:29;101610.84;;;7.69;97.36
3132;BME280;62090;52.330;9.104;2023-03-04T09:36:59;101613.16;;;7.64;97.55
3132;BME280;62090;52.330;9.104;2023-03-04T09:39:28;101596.34;;;7.67;98.40
3132;BME280;62090;52.330;9.104;2023-03-04T09:41:59;101627.47;;;7.80;97.56
3132;BME280;62090;52.330;9.104;2023-03-04T09:44:35;101625.50;;;7.75;98.81
3132;BME280;62090;52.330;9.104;2023-03-04T09:47:11;101616.00;;;7.71;99.96
3132;BME280;62090;52.330;9.104;2023-03-04T09:49:44;101620.56;;;7.78;99.83
3132;BME280;62090;52.330;9.104;2023-03-04T09:52:26;101617.75;;;7.89;100.00
3132;BME280;62090;52.330;9.104;2023-03-04T09:55:04;101613.34;;;7.85;100.00
3132;BME280;62090;52.330;9.104;2023-03-04T09:57:46;101607.13;;;7.96;100.00
3132;BME280;62090;52.330;9.104;2023-03-04T10:00:23;101609.25;;;8.23;100.00
3132;BME280;62090;52.330;9.104;2023-03-04T10:03:10;101612.53;;;8.38;99.69
3132;BME280;62090;52.330;9.104;2023-03-04T10:05:45;101582.03;;;8.20;98.34
3132;BME280;62090;52.330;9.104;2023-03-04T10:08:30;101500.69;;;7.82;97.68
3132;BME280;62090;52.330;9.104;2023-03-04T10:11:05;101563.63;;;8.06;96.71
3132;BME280;62090;52.330;9.104;2023-03-04T10:13:43;101600.09;;;8.26;96.95
3132;BME280;62090;52.330;9.104;2023-03-04T10:16:23;101538.53;;;7.95;96.59
3132;BME280;62090;52.330;9.104;2023-03-04T10:18:57;101606.72;;;8.23;96.24
3132;BME280;62090;52.330;9.104;2023-03-04T10:21:31;101591.41;;;8.21;96.15
3132;BME280;62090;52.330;9.104;2023-03-04T10:24:10;101592.16;;;8.36;96.16
3132;BME280;62090;52.330;9.104;2023-03-04T10:26:41;101598.63;;;8.30;95.65
3132;BME280;62090;52.330;9.104;2023-03-04T10:29:16;101580.72;;;8.11;95.37
3132;BME280;62090;52.330;9.104;2023-03-04T10:31:49;101598.00;;;8.18;95.51
3132;BME280;62090;52.330;9.104;2023-03-04T10:34:21;101585.47;;;8.03;95.33
3132;BME280;62090;52.330;9.104;2023-03-04T10:36:58;101590.19;;;8.13;95.41
3132;BME280;62090;52.330;9.104;2023-03-04T10:39:30;101536.63;;;7.73;95.45
3132;BME280;62090;52.330;9.104;2023-03-04T10:42:02;101592.56;;;7.92;93.72
3132;BME280;62090;52.330;9.104;2023-03-04T10:44:33;101585.81;;;7.93;93.20
3132;BME280;62090;52.330;9.104;2023-03-04T10:47:09;101575.50;;;7.90;92.44
3132;BME280;62090;52.330;9.104;2023-03-04T10:49:50;101583.94;;;8.06;91.84
3132;BME280;62090;52.330;9.104;2023-03-04T10:52:27;101566.81;;;8.02;89.88
3132;BME280;62090;52.330;9.104;2023-03-04T10:54:58;101548.38;;;7.89;87.41
3132;BME280;62090;52.330;9.104;2023-03-04T10:57:33;101592.72;;;8.13;87.46
3132;BME280;62090;52.330;9.104;2023-03-04T11:00:24;101550.88;;;7.87;84.62
3132;BME280;62090;52.330;9.104;2023-03-04T11:03:21;101576.53;;;8.11;85.39
3132;BME280;62090;52.330;9.104;2023-03-04T11:06:09;101582.19;;;8.23;85.64
3132;BME280;62090;52.330;9.104;2023-03-04T11:08:40;101577.56;;;8.32;85.78
3132;BME280;62090;52.330;9.104;2023-03-04T11:11:32;101576.31;;;8.42;84.65
3132;BME280;62090;52.330;9.104;2023-03-04T11:14:21;101565.75;;;8.51;83.90
3132;BME280;62090;52.330;9.104;2023-03-04T11:16:53;101572.91;;;8.41;83.69
3132;BME280;62090;52.330;9.104;2023-03-04T11:19:28;101574.56;;;8.05;84.29
3132;BME280;62090;52.330;9.104;2023-03-04T11:22:00;101587.88;;;7.84;87.15
3132;BME280;62090;52.330;9.104;2023-03-04T11:24:33;101575.56;;;7.40;90.50
3132;BME280;62090;52.330;9.104;2023-03-04T11:27:09;101578.91;;;7.22;93.03
3132;BME280;62090;52.330;9.104;2023-03-04T11:29:46;101540.81;;;7.05;94.49
3132;BME280;62090;52.330;9.104;2023-03-04T11:32:23;101520.22;;;6.99;95.68
3132;BME280;62090;52.330;9.104;2023-03-04T11:35:05;101588.47;;;7.44;95.66
3132;BME280;62090;52.330;9.104;2023-03-04T11:37:41;101521.47;;;7.23;96.45
3132;BME280;62090;52.330;9.104;2023-03-04T11:40:18;101522.91;;;7.18;95.58
3132;BME280;62090;52.330;9.104;2023-03-04T11:42:54;101595.88;;;7.57;96.87
3132;BME280;62090;52.330;9.104;2023-03-04T11:45:31;101590.13;;;7.44;96.21
3132;BME280;62090;52.330;9.104;2023-03-04T11:48:08;101576.81;;;7.32;98.20
3132;BME280;62090;52.330;9.104;2023-03-04T11:50:47;101582.44;;;7.42;98.39
3132;BME280;62090;52.330;9.104;2023-03-04T11:53:24;101554.22;;;7.36;98.41
3132;BME280;62090;52.330;9.104;2023-03-04T11:56:17;101567.53;;;8.35;93.43
3132;BME280;62090;52.330;9.104;2023-03-04T12:02:12;101542.31;;;8.03;94.45
3132;BME280;62090;52.330;9.104;2023-03-04T12:04:59;101567.47;;;8.16;94.28
3132;BME280;62090;52.330;9.104;2023-03-04T12:07:44;101560.88;;;8.02;91.76
3132;BME280;62090;52.330;9.104;2023-03-04T12:10:21;101551.59;;;8.02;91.56
3132;BME280;62090;52.330;9.104;2023-03-04T12:15:59;101561.09;;;8.42;91.85
3132;BME280;62090;52.330;9.104;2023-03-04T12:18:47;101546.16;;;8.67;90.39
3132;BME280;62090;52.330;9.104;2023-03-04T12:21:33;101523.75;;;8.59;87.42
3132;BME280;62090;52.330;9.104;2023-03-04T12:24:32;101548.84;;;8.70;86.50
3132;BME280;62090;52.330;9.104;2023-03-04T12:27:10;101533.06;;;8.77;86.30
3132;BME280;62090;52.330;9.104;2023-03-04T12:29:49;101525.50;;;8.79;85.81
3132;BME280;62090;52.330;9.104;2023-03-04T12:32:24;101527.78;;;8.92;85.21
3132;BME280;62090;52.330;9.104;2023-03-04T12:35:13;101517.75;;;9.14;83.77
3132;BME280;62090;52.330;9.104;2023-03-04T12:38:08;101509.28;;;9.35;81.37
3132;BME280;62090;52.330;9.104;2023-03-04T12:40:54;101500.69;;;9.32;81.37
3132;BME280;62090;52.330;9.104;2023-03-04T12:43:45;101494.88;;;8.76;80.50
3132;BME280;62090;52.330;9.104;2023-03-04T12:46:26;101492.91;;;8.32;80.41
3132;BME280;62090;52.330;9.104;2023-03-04T12:49:21;101508.28;;;8.35;81.80
3132;BME280;62090;52.330;9.104;2023-03-04T12:52:02;101512.19;;;8.28;81.70
3132;BME280;62090;52.330;9.104;2023-03-04T12:54:38;101520.25;;;8.37;80.85
3132;BME280;62090;52.330;9.104;2023-03-04T12:57:13;101514.88;;;8.31;79.26
3132;BME280;62090;52.330;9.104;2023-03-04T12:59:48;101509.22;;;8.37;80.11
3132;BME280;62090;52.330;9.104;2023-03-04T13:02:31;101509.22;;;8.37;78.28
3132;BME280;62090;52.330;9.104;2023-03-04T13:05:18;101482.81;;;8.33;80.07
3132;BME280;62090;52.330;9.104;2023-03-04T13:07:58;101511.44;;;8.48;78.18
3132;BME280;62090;52.330;9.104;2023-03-04T13:10:31;101499.03;;;8.55;78.55
3132;BME280;62090;52.330;9.104;2023-03-04T13:13:03;101506.53;;;8.71;76.80
3132;BME280;62090;52.330;9.104;2023-03-04T13:15:35;101496.69;;;8.59;76.63
3132;BME280;62090;52.330;9.104;2023-03-04T13:18:29;101500.13;;;8.42;75.45
3132;BME280;62090;52.330;9.104;2023-03-04T13:21:21;101507.44;;;8.34;75.14
3132;BME280;62090;52.330;9.104;2023-03-04T13:23:52;101482.78;;;7.79;79.75
3132;BME280;62090;52.330;9.104;2023-03-04T13:26:26;101511.09;;;7.52;83.87
3132;BME280;62090;52.330;9.104;2023-03-04T16:03:04;101159.06;;;4.71;77.88
3132;BME280;62090;52.330;9.104;2023-03-04T16:05:35;101323.94;;;5.61;76.93
3132;BME280;62090;52.330;9.104;2023-03-04T16:08:10;101394.47;;;6.34;76.31
3132;BME280;62090;52.330;9.104;2023-03-04T16:10:41;101475.78;;;7.05;76.34
3132;BME280;62090;52.330;9.104;2023-03-04T16:13:14;101322.13;;;6.22;75.71
3132;BME280;62090;52.330;9.104;2023-03-04T16:15:45;101352.31;;;6.51;74.70
3132;BME280;62090;52.330;9.104;2023-03-04T16:18:18;101455.63;;;7.25;74.92
3132;BME280;62090;52.330;9.104;2023-03-04T16:20:49;101481.88;;;7.43;74.64